sensor_id;sensor_type;location;lat;lon;timestamp;pressure;altitude;pressure_sealevel;temperature;humidity
51293;BME280;37377;45.186;9.778;2023-11-19T00:02:04;101852.81;;;6.83;80.08
51293;BME280;37377;45.186;9.778;2023-11-19T00:04:43;101847.66;;;6.81;80.02
51293;BME280;37377;45.186;9.778;2023-11-19T00:07:24;101842.81;;;6.93;79.47
51293;BME280;37377;45.186;9.778;2023-11-19T00:10:05;101837.13;;;7.21;78.52
51293;BME280;37377;45.186;9.778;2023-11-19T00:13:18;101831.41;;;7.31;77.27
51293;BME280;37377;45.186;9.778;2023-11-19T00:16:32;101827.81;;;7.34;77.94
51293;BME280;37377;45.186;9.778;2023-11-19T00:19:55;101819.75;;;7.38;78.15
51293;BME280;37377;45.186;9.778;2023-11-19T00:22:01;101824.97;;;7.38;77.99
51293;BME280;37377;45.186;9.778;2023-11-19T00:24:35;101824.53;;;7.48;76.70
51293;BME280;37377;45.186;9.778;2023-11-19T00:27:43;101827.41;;;7.42;76.58
51293;BME280;37377;45.186;9.778;2023-11-19T00:30:30;101821.59;;;7.36;77.09
51293;BME280;37377;45.186;9.778;2023-11-19T00:33:02;101824.69;;;7.45;75.22
51293;BME280;37377;45.186;9.778;2023-11-19T00:35:49;101821.63;;;7.54;74.01
51293;BME280;37377;45.186;9.778;2023-11-19T00:38:16;101823.59;;;7.49;74.31
51293;BME280;37377;45.186;9.778;2023-11-19T00:40:52;101817.06;;;7.40;73.93
51293;BME280;37377;45.186;9.778;2023-11-19T00:43:24;101822.16;;;7.43;73.66
51293;BME280;37377;45.186;9.778;2023-11-19T00:45:56;101822.28;;;7.40;73.46
51293;BME280;37377;45.186;9.778;2023-11-19T00:48:36;101817.44;;;7.32;73.41
51293;BME280;37377;45.186;9.778;2023-11-19T00:52:06;101812.38;;;7.29;73.59
51293;BME280;37377;45.186;9.778;2023-11-19T01:03:17;101808.84;;;7.13;74.43
51293;BME280;37377;45.186;9.778;2023-11-19T01:08:07;101809.94;;;6.90;74.36
51293;BME280;37377;45.186;9.778;2023-11-19T01:11:44;101811.25;;;6.80;74.29
51293;BME280;37377;45.186;9.778;2023-11-19T01:15:23;101809.28;;;6.85;74.41
51293;BME280;37377;45.186;9.778;2023-11-19T01:18:13;101804.94;;;6.86;73.41
51293;BME280;37377;45.186;9.778;2023-11-19T01:20:46;101807.69;;;6.82;72.67
51293;BME280;37377;45.186;9.778;2023-11-19T01:23:14;101800.31;;;6.73;72.70
51293;BME280;37377;45.186;9.778;2023-11-19T01:26:16;101795.22;;;6.70;73.45
51293;BME280;37377;45.186;9.778;2023-11-19T01:29:03;101792.19;;;6.79;72.88
51293;BME280;37377;45.186;9.778;2023-11-19T01:31:42;101793.78;;;7.01;71.15
51293;BME280;37377;45.186;9.778;2023-11-19T01:34:11;101791.72;;;6.90;71.35
51293;BME280;37377;45.186;9.778;2023-11-19T01:37:02;101793.03;;;6.99;71.45
51293;BME280;37377;45.186;9.778;2023-11-19T01:40:54;101803.94;;;7.07;70.76
51293;BME280;37377;45.186;9.778;2023-11-19T01:49:24;101791.16;;;6.84;73.22
51293;BME280;37377;45.186;9.778;2023-11-19T01:52:19;101770.75;;;6.74;72.50
51293;BME280;37377;45.186;9.778;2023-11-19T02:01:23;101763.25;;;6.86;71.13
51293;BME280;37377;45.186;9.778;2023-11-19T02:05:25;101750.56;;;6.97;71.14
51293;BME280;37377;45.186;9.778;2023-11-19T02:09:42;101761.53;;;6.67;73.14
51293;BME280;37377;45.186;9.778;2023-11-19T02:17:49;101745.00;;;6.12;76.82
51293;BME280;37377;45.186;9.778;2023-11-19T02:29:40;101720.16;;;6.05;80.03
51293;BME280;37377;45.186;9.778;2023-11-19T02:33:30;101701.91;;;5.86;81.27
51293;BME280;37377;45.186;9.778;2023-11-19T02:36:43;101706.59;;;5.78;81.70
51293;BME280;37377;45.186;9.778;2023-11-19T02:47:07;101708.50;;;6.13;78.59
51293;BME280;37377;45.186;9.778;2023-11-19T02:49:38;101703.94;;;6.18;78.69
51293;BME280;37377;45.186;9.778;2023-11-19T02:52:31;101699.00;;;6.31;76.91
51293;BME280;37377;45.186;9.778;2023-11-19T02:55:11;101693.97;;;6.28;77.15
51293;BME280;37377;45.186;9.778;2023-11-19T02:57:53;101697.19;;;6.33;76.94
51293;BME280;37377;45.186;9.778;2023-11-19T03:00:54;101695.00;;;6.43;76.52
51293;BME280;37377;45.186;9.778;2023-11-19T03:03:33;101704.44;;;6.45;76.78
51293;BME280;37377;45.186;9.778;2023-11-19T03:06:08;101700.59;;;6.52;76.44
51293;BME280;37377;45.186;9.778;2023-11-19T03:08:55;101699.44;;;6.41;76.38
51293;BME280;37377;45.186;9.778;2023-11-19T03:11:36;101698.75;;;6.37;75.77
51293;BME280;37377;45.186;9.778;2023-11-19T03:14:10;101704.28;;;5.92;77.02
51293;BME280;37377;45.186;9.778;2023-11-19T03:16:58;101696.34;;;5.75;78.77
51293;BME280;37377;45.186;9.778;2023-11-19T03:20:12;101691.63;;;5.83;78.42
51293;BME280;37377;45.186;9.778;2023-11-19T03:22:56;101691.34;;;6.09;77.76
51293;BME280;37377;45.186;9.778;2023-11-19T03:25:41;101693.28;;;5.85;77.42
51293;BME280;37377;45.186;9.778;2023-11-19T03:28:16;101700.31;;;5.63;78.40
51293;BME280;37377;45.186;9.778;2023-11-19T03:30:44;101702.31;;;5.56;78.72
51293;BME280;37377;45.186;9.778;2023-11-19T03:33:58;101688.84;;;5.48;79.44
51293;BME280;37377;45.186;9.778;2023-11-19T03:36:45;101691.94;;;5.36;80.55
51293;BME280;37377;45.186;9.778;2023-11-19T03:39:31;101697.78;;;5.61;80.31
51293;BME280;37377;45.186;9.778;2023-11-19T03:42:04;101697.22;;;5.74;79.31
51293;BME280;37377;45.186;9.778;2023-11-19T03:45:03;101696.56;;;5.89;78.79
51293;BME280;37377;45.186;9.778;2023-11-19T03:47:36;101707.16;;;6.05;78.67
51293;BME280;37377;45.186;9.778;2023-11-19T03:50:07;101706.16;;;6.07;77.75
51293;BME280;37377;45.186;9.778;2023-11-19T03:52:36;101701.81;;;6.08;78.12
51293;BME280;37377;45.186;9.778;2023-11-19T03:55:09;101699.59;;;6.19;78.09
51293;BME280;37377;45.186;9.778;2023-11-19T03:57:42;101696.84;;;6.22;77.90
51293;BME280;37377;45.186;9.778;2023-11-19T04:00:12;101696.59;;;6.27;77.44
51293;BME280;37377;45.186;9.778;2023-11-19T04:02:41;101687.97;;;6.26;77.63
51293;BME280;37377;45.186;9.778;2023-11-19T04:05:17;101687.03;;;6.27;76.60
51293;BME280;37377;45.186;9.778;2023-11-19T04:09:01;101687.28;;;6.22;76.67
51293;BME280;37377;45.186;9.778;2023-11-19T04:13:31;101677.38;;;6.12;77.03
51293;BME280;37377;45.186;9.778;2023-11-19T04:16:18;101688.69;;;5.92;77.80
51293;BME280;37377;45.186;9.778;2023-11-19T04:18:53;101691.38;;;5.89;77.77
51293;BME280;37377;45.186;9.778;2023-11-19T04:21:27;101686.72;;;5.77;78.36
51293;BME280;37377;45.186;9.778;2023-11-19T04:23:55;101687.69;;;5.74;78.83
51293;BME280;37377;45.186;9.778;2023-11-19T04:26:33;101684.78;;;5.61;78.68
51293;BME280;37377;45.186;9.778;2023-11-19T04:29:03;101679.72;;;5.58;78.92
51293;BME280;37377;45.186;9.778;2023-11-19T04:31:33;101672.47;;;5.65;78.79
51293;BME280;37377;45.186;9.778;2023-11-19T04:34:01;101668.16;;;5.65;78.32
51293;BME280;37377;45.186;9.778;2023-11-19T04:36:31;101676.31;;;5.77;78.58
51293;BME280;37377;45.186;9.778;2023-11-19T04:39:02;101665.34;;;5.70;78.29
51293;BME280;37377;45.186;9.778;2023-11-19T04:41:58;101655.88;;;5.88;77.18
51293;BME280;37377;45.186;9.778;2023-11-19T04:44:32;101663.56;;;5.91;76.60
51293;BME280;37377;45.186;9.778;2023-11-19T04:47:08;101661.00;;;5.89;76.46
51293;BME280;37377;45.186;9.778;2023-11-19T04:49:49;101656.66;;;5.90;76.11
51293;BME280;37377;45.186;9.778;2023-11-19T04:52:29;101649.91;;;5.86;76.29
51293;BME280;37377;45.186;9.778;2023-11-19T04:54:57;101637.09;;;5.81;76.88
51293;BME280;37377;45.186;9.778;2023-11-19T04:57:24;101645.13;;;5.77;77.25
51293;BME280;37377;45.186;9.778;2023-11-19T04:59:52;101637.94;;;5.82;76.46
51293;BME280;37377;45.186;9.778;2023-11-19T05:02:19;101630.78;;;5.87;76.84
51293;BME280;37377;45.186;9.778;2023-11-19T05:04:52;101636.47;;;5.76;77.03
51293;BME280;37377;45.186;9.778;2023-11-19T05:07:23;101638.34;;;5.73;77.02
51293;BME280;37377;45.186;9.778;2023-11-19T05:09:52;101646.38;;;5.68;77.27
51293;BME280;37377;45.186;9.778;2023-11-19T05:12:25;101655.50;;;5.58;77.45
51293;BME280;37377;45.186;9.778;2023-11-19T05:14:55;101644.78;;;5.65;77.47
51293;BME280;37377;45.186;9.778;2023-11-19T05:17:42;101641.09;;;5.69;77.29
51293;BME280;37377;45.186;9.778;2023-11-19T05:20:13;101634.84;;;5.74;76.89
51293;BME280;37377;45.186;9.778;2023-11-19T05:22:44;101641.75;;;5.75;76.31
51293;BME280;37377;45.186;9.778;2023-11-19T05:25:18;101643.84;;;5.66;76.30
51293;BME280;37377;45.186;9.778;2023-11-19T05:27:47;101642.50;;;5.58;77.45
51293;BME280;37377;45.186;9.778;2023-11-19T05:30:14;101639.31;;;5.51;77.21
51293;BME280;37377;45.186;9.778;2023-11-19T05:32:54;101624.91;;;5.44;77.22
51293;BME280;37377;45.186;9.778;2023-11-19T05:35:24;101619.09;;;5.39;76.96
51293;BME280;37377;45.186;9.778;2023-11-19T05:37:57;101620.63;;;5.43;76.61
51293;BME280;37377;45.186;9.778;2023-11-19T05:40:29;101620.22;;;5.52;76.50
51293;BME280;37377;45.186;9.778;2023-11-19T05:42:59;101624.88;;;5.64;75.60
51293;BME280;37377;45.186;9.778;2023-11-19T05:45:36;101619.13;;;5.58;75.04
51293;BME280;37377;45.186;9.778;2023-11-19T05:48:06;101616.88;;;5.69;74.92
51293;BME280;37377;45.186;9.778;2023-11-19T05:50:36;101615.63;;;5.78;73.92
51293;BME280;37377;45.186;9.778;2023-11-19T05:53:03;101612.88;;;5.81;73.28
51293;BME280;37377;45.186;9.778;2023-11-19T05:55:36;101615.19;;;5.68;73.38
51293;BME280;37377;45.186;9.778;2023-11-19T05:58:26;101607.66;;;5.62;73.63
51293;BME280;37377;45.186;9.778;2023-11-19T06:01:03;101598.31;;;5.58;73.79
51293;BME280;37377;45.186;9.778;2023-11-19T06:03:38;101599.16;;;5.58;73.85
51293;BME280;37377;45.186;9.778;2023-11-19T06:06:18;101600.00;;;5.59;74.12
51293;BME280;37377;45.186;9.778;2023-11-19T06:08:57;101602.28;;;5.66;73.48
51293;BME280;37377;45.186;9.778;2023-11-19T06:11:24;101591.31;;;5.60;73.33
51293;BME280;37377;45.186;9.778;2023-11-19T06:14:22;101615.03;;;5.52;73.37
51293;BME280;37377;45.186;9.778;2023-11-19T06:17:09;101607.56;;;5.45;74.11
51293;BME280;37377;45.186;9.778;2023-11-19T06:19:40;101598.69;;;5.30;74.06
51293;BME280;37377;45.186;9.778;2023-11-19T06:22:13;101607.28;;;5.32;73.83
51293;BME280;37377;45.186;9.778;2023-11-19T06:24:40;101600.59;;;5.45;73.84
51293;BME280;37377;45.186;9.778;2023-11-19T06:27:11;101593.72;;;5.44;73.47
51293;BME280;37377;45.186;9.778;2023-11-19T06:29:43;101592.94;;;5.23;73.84
51293;BME280;37377;45.186;9.778;2023-11-19T06:32:19;101594.84;;;5.38;73.64
51293;BME280;37377;45.186;9.778;2023-11-19T06:34:47;101591.06;;;5.46;73.30
51293;BME280;37377;45.186;9.778;2023-11-19T06:37:14;101597.09;;;5.46;73.87
51293;BME280;37377;45.186;9.778;2023-11-19T06:39:46;101598.00;;;5.45;73.04
51293;BME280;37377;45.186;9.778;2023-11-19T06:42:19;101594.81;;;5.78;72.81
51293;BME280;37377;45.186;9.778;2023-11-19T06:44:49;101603.66;;;5.74;71.95
51293;BME280;37377;45.186;9.778;2023-11-19T06:47:17;101601.78;;;5.38;72.73
51293;BME280;37377;45.186;9.778;2023-11-19T06:49:51;101593.94;;;5.39;73.01
51293;BME280;37377;45.186;9.778;2023-11-19T06:52:24;101598.19;;;5.61;73.42
51293;BME280;37377;45.186;9.778;2023-11-19T06:54:57;101595.25;;;5.68;72.21
51293;BME280;37377;45.186;9.778;2023-11-19T06:57:32;101604.78;;;5.68;72.20
51293;BME280;37377;45.186;9.778;2023-11-19T07:00:13;101603.81;;;5.71;72.25
51293;BME280;37377;45.186;9.778;2023-11-19T07:02:40;101615.84;;;6.30;70.49
51293;BME280;37377;45.186;9.778;2023-11-19T07:05:08;101618.72;;;6.77;69.03
51293;BME280;37377;45.186;9.778;2023-11-19T07:07:43;101619.72;;;7.09;67.43
51293;BME280;37377;45.186;9.778;2023-11-19T07:10:14;101637.41;;;7.20;66.80
51293;BME280;37377;45.186;9.778;2023-11-19T07:12:42;101622.53;;;7.22;66.49
51293;BME280;37377;45.186;9.778;2023-11-19T07:15:12;101623.34;;;7.39;66.28
51293;BME280;37377;45.186;9.778;2023-11-19T07:17:42;101619.56;;;7.62;64.75
51293;BME280;37377;45.186;9.778;2023-11-19T07:20:13;101621.09;;;7.82;64.19
51293;BME280;37377;45.186;9.778;2023-11-19T07:22:52;101621.44;;;8.08;63.51
51293;BME280;37377;45.186;9.778;2023-11-19T07:25:23;101630.22;;;8.38;62.83
51293;BME280;37377;45.186;9.778;2023-11-19T07:27:51;101625.91;;;9.13;61.16
51293;BME280;37377;45.186;9.778;2023-11-19T07:30:18;101623.63;;;9.37;60.39
51293;BME280;37377;45.186;9.778;2023-11-19T07:32:48;101617.41;;;9.95;59.40
51293;BME280;37377;45.186;9.778;2023-11-19T07:35:17;101615.44;;;9.99;57.88
51293;BME280;37377;45.186;9.778;2023-11-19T07:37:47;101626.78;;;10.80;56.09
51293;BME280;37377;45.186;9.778;2023-11-19T07:40:17;101620.13;;;11.14;55.05
51293;BME280;37377;45.186;9.778;2023-11-19T07:42:45;101632.94;;;11.31;53.43
51293;BME280;37377;45.186;9.778;2023-11-19T07:45:12;101621.28;;;11.48;53.93
51293;BME280;37377;45.186;9.778;2023-11-19T07:47:39;101633.19;;;12.64;51.10
51293;BME280;37377;45.186;9.778;2023-11-19T07:50:07;101632.84;;;12.80;49.63
51293;BME280;37377;45.186;9.778;2023-11-19T07:52:34;101618.19;;;11.93;51.13
51293;BME280;37377;45.186;9.778;2023-11-19T07:55:01;101615.81;;;11.64;52.74
51293;BME280;37377;45.186;9.778;2023-11-19T07:57:29;101619.09;;;11.42;52.91
51293;BME280;37377;45.186;9.778;2023-11-19T07:59:58;101623.19;;;12.08;51.59
51293;BME280;37377;45.186;9.778;2023-11-19T08:02:24;101619.03;;;13.57;49.30
51293;BME280;37377;45.186;9.778;2023-11-19T08:04:51;101627.19;;;15.16;44.99
51293;BME280;37377;45.186;9.778;2023-11-19T08:07:19;101632.13;;;16.51;41.77
51293;BME280;37377;45.186;9.778;2023-11-19T08:09:45;101627.41;;;18.15;38.71
51293;BME280;37377;45.186;9.778;2023-11-19T08:12:12;101614.03;;;17.51;38.47
51293;BME280;37377;45.186;9.778;2023-11-19T08:14:41;101630.00;;;18.42;38.03
51293;BME280;37377;45.186;9.778;2023-11-19T08:17:08;101617.06;;;19.18;35.46
51293;BME280;37377;45.186;9.778;2023-11-19T08:19:35;101610.38;;;19.74;34.21
51293;BME280;37377;45.186;9.778;2023-11-19T08:22:02;101612.22;;;18.96;36.11
51293;BME280;37377;45.186;9.778;2023-11-19T08:24:28;101616.00;;;19.11;35.61
51293;BME280;37377;45.186;9.778;2023-11-19T08:26:55;101609.38;;;19.75;33.66
51293;BME280;37377;45.186;9.778;2023-11-19T08:29:25;101616.00;;;20.22;33.84
51293;BME280;37377;45.186;9.778;2023-11-19T08:31:52;101605.78;;;19.24;36.11
51293;BME280;37377;45.186;9.778;2023-11-19T08:34:19;101607.66;;;19.06;36.05
51293;BME280;37377;45.186;9.778;2023-11-19T08:36:46;101616.00;;;18.67;35.34
51293;BME280;37377;45.186;9.778;2023-11-19T08:39:16;101636.81;;;20.26;33.64
51293;BME280;37377;45.186;9.778;2023-11-19T08:41:43;101627.31;;;20.40;33.48
51293;BME280;37377;45.186;9.778;2023-11-19T08:44:10;101637.72;;;20.59;33.36
51293;BME280;37377;45.186;9.778;2023-11-19T08:46:37;101630.06;;;20.73;32.66
51293;BME280;37377;45.186;9.778;2023-11-19T08:49:03;101636.56;;;20.86;33.24
51293;BME280;37377;45.186;9.778;2023-11-19T08:51:31;101641.47;;;21.46;32.28
51293;BME280;37377;45.186;9.778;2023-11-19T08:53:58;101634.84;;;21.18;32.26
51293;BME280;37377;45.186;9.778;2023-11-19T08:56:25;101638.34;;;21.10;33.48
51293;BME280;37377;45.186;9.778;2023-11-19T08:58:52;101636.50;;;21.19;32.26
51293;BME280;37377;45.186;9.778;2023-11-19T09:01:19;101648.00;;;21.36;31.88
51293;BME280;37377;45.186;9.778;2023-11-19T09:03:45;101647.63;;;20.33;33.51
51293;BME280;37377;45.186;9.778;2023-11-19T09:06:13;101635.41;;;19.98;33.62
51293;BME280;37377;45.186;9.778;2023-11-19T09:08:39;101638.78;;;19.74;33.97
51293;BME280;37377;45.186;9.778;2023-11-19T09:11:07;101641.16;;;18.81;36.05
51293;BME280;37377;45.186;9.778;2023-11-19T09:13:35;101648.69;;;18.05;37.67
51293;BME280;37377;45.186;9.778;2023-11-19T09:16:03;101652.56;;;17.26;38.47
51293;BME280;37377;45.186;9.778;2023-11-19T09:18:30;101641.84;;;17.65;37.88
51293;BME280;37377;45.186;9.778;2023-11-19T09:20:58;101654.78;;;17.41;38.65
51293;BME280;37377;45.186;9.778;2023-11-19T09:23:29;101662.63;;;17.04;40.29
51293;BME280;37377;45.186;9.778;2023-11-19T09:25:59;101659.28;;;17.11;40.38
51293;BME280;37377;45.186;9.778;2023-11-19T09:28:26;101655.34;;;16.19;40.83
51293;BME280;37377;45.186;9.778;2023-11-19T09:30:53;101661.81;;;17.03;40.11
51293;BME280;37377;45.186;9.778;2023-11-19T09:33:20;101643.97;;;16.66;40.64
51293;BME280;37377;45.186;9.778;2023-11-19T09:35:47;101641.16;;;16.20;40.96
51293;BME280;37377;45.186;9.778;2023-11-19T09:38:17;101643.13;;;16.27;41.34
51293;BME280;37377;45.186;9.778;2023-11-19T09:40:44;101644.97;;;15.96;41.98
51293;BME280;37377;45.186;9.778;2023-11-19T09:43:14;101639.06;;;15.22;43.46
51293;BME280;37377;45.186;9.778;2023-11-19T09:45:48;101639.63;;;15.05;44.01
51293;BME280;37377;45.186;9.778;2023-11-19T09:48:17;101641.44;;;14.40;43.99
51293;BME280;37377;45.186;9.778;2023-11-19T09:50:48;101626.94;;;15.71;42.47
51293;BME280;37377;45.186;9.778;2023-11-19T09:53:15;101627.56;;;16.73;40.69
51293;BME280;37377;45.186;9.778;2023-11-19T09:55:42;101625.13;;;17.65;38.28
51293;BME280;37377;45.186;9.778;2023-11-19T09:58:11;101618.81;;;17.38;39.32
51293;BME280;37377;45.186;9.778;2023-11-19T10:00:41;101630.22;;;16.82;41.11
51293;BME280;37377;45.186;9.778;2023-11-19T10:03:11;101617.81;;;16.34;42.88
51293;BME280;37377;45.186;9.778;2023-11-19T10:05:39;101626.28;;;16.38;41.13
51293;BME280;37377;45.186;9.778;2023-11-19T10:08:06;101616.25;;;16.41;41.84
51293;BME280;37377;45.186;9.778;2023-11-19T10:10:34;101603.75;;;16.82;41.16
51293;BME280;37377;45.186;9.778;2023-11-19T10:13:01;101603.03;;;16.51;40.97
51293;BME280;37377;45.186;9.778;2023-11-19T10:15:32;101600.66;;;16.87;40.56
51293;BME280;37377;45.186;9.778;2023-11-19T10:18:02;101591.34;;;16.34;41.93
51293;BME280;37377;45.186;9.778;2023-11-19T10:20:41;101584.63;;;16.01;43.67
51293;BME280;37377;45.186;9.778;2023-11-19T10:23:10;101578.09;;;15.55;44.73
51293;BME280;37377;45.186;9.778;2023-11-19T10:25:38;101580.94;;;15.64;44.93
51293;BME280;37377;45.186;9.778;2023-11-19T10:28:04;101593.44;;;15.71;45.29
51293;BME280;37377;45.186;9.778;2023-11-19T10:30:31;101576.63;;;15.42;46.81
51293;BME280;37377;45.186;9.778;2023-11-19T10:33:05;101572.22;;;15.52;45.86
51293;BME280;37377;45.186;9.778;2023-11-19T10:35:33;101575.28;;;15.47;45.91
51293;BME280;37377;45.186;9.778;2023-11-19T10:38:03;101570.56;;;15.20;46.33
51293;BME280;37377;45.186;9.778;2023-11-19T10:40:40;101563.13;;;15.05;47.95
51293;BME280;37377;45.186;9.778;2023-11-19T10:43:08;101555.06;;;15.06;48.02
51293;BME280;37377;45.186;9.778;2023-11-19T10:45:36;101548.22;;;15.24;48.09
51293;BME280;37377;45.186;9.778;2023-11-19T10:48:05;101552.41;;;15.37;47.94
51293;BME280;37377;45.186;9.778;2023-11-19T10:50:37;101559.97;;;14.90;49.19
51293;BME280;37377;45.186;9.778;2023-11-19T10:53:05;101556.47;;;15.10;48.86
51293;BME280;37377;45.186;9.778;2023-11-19T10:55:34;101556.41;;;15.21;47.76
51293;BME280;37377;45.186;9.778;2023-11-19T10:58:07;101572.03;;;15.44;46.61
51293;BME280;37377;45.186;9.778;2023-11-19T11:00:56;101560.53;;;15.14;47.73
51293;BME280;37377;45.186;9.778;2023-11-19T11:03:25;101561.09;;;15.18;47.47
51293;BME280;37377;45.186;9.778;2023-11-19T11:05:53;101540.75;;;15.29;47.30
51293;BME280;37377;45.186;9.778;2023-11-19T11:08:20;101552.31;;;15.38;47.62
51293;BME280;37377;45.186;9.778;2023-11-19T11:10:55;101530.47;;;15.36;47.51
51293;BME280;37377;45.186;9.778;2023-11-19T11:13:25;101531.31;;;15.06;49.25
51293;BME280;37377;45.186;9.778;2023-11-19T11:15:56;101533.59;;;14.90;48.74
51293;BME280;37377;45.186;9.778;2023-11-19T11:18:27;101531.47;;;15.05;48.76
51293;BME280;37377;45.186;9.778;2023-11-19T11:21:09;101535.84;;;14.94;48.20
51293;BME280;37377;45.186;9.778;2023-11-19T11:29:35;101522.34;;;15.18;47.53
51293;BME280;37377;45.186;9.778;2023-11-19T11:32:08;101509.56;;;15.14;48.29
51293;BME280;37377;45.186;9.778;2023-11-19T11:40:15;101514.00;;;15.13;47.31
51293;BME280;37377;45.186;9.778;2023-11-19T11:42:45;101501.94;;;14.90;47.89
51293;BME280;37377;45.186;9.778;2023-11-19T11:45:14;101501.31;;;14.77;48.11
51293;BME280;37377;45.186;9.778;2023-11-19T11:55:39;101490.91;;;15.06;48.05
51293;BME280;37377;45.186;9.778;2023-11-19T11:58:19;101495.81;;;14.89;48.92
51293;BME280;37377;45.186;9.778;2023-11-19T12:00:48;101494.44;;;14.64;50.11
51293;BME280;37377;45.186;9.778;2023-11-19T12:03:22;101486.00;;;14.70;50.07
51293;BME280;37377;45.186;9.778;2023-11-19T12:05:49;101486.22;;;14.58;50.36
51293;BME280;37377;45.186;9.778;2023-11-19T12:08:24;101482.72;;;14.57;50.01
51293;BME280;37377;45.186;9.778;2023-11-19T12:10:54;101471.47;;;14.55;50.44
51293;BME280;37377;45.186;9.778;2023-11-19T12:13:42;101477.16;;;14.39;51.15
51293;BME280;37377;45.186;9.778;2023-11-19T12:16:10;101464.25;;;14.15;51.51
51293;BME280;37377;45.186;9.778;2023-11-19T12:18:39;101471.59;;;14.33;50.98
51293;BME280;37377;45.186;9.778;2023-11-19T12:21:07;101462.81;;;14.11;52.40
51293;BME280;37377;45.186;9.778;2023-11-19T12:23:44;101450.03;;;14.07;51.96
51293;BME280;37377;45.186;9.778;2023-11-19T12:26:21;101459.81;;;13.84;52.90
51293;BME280;37377;45.186;9.778;2023-11-19T12:29:01;101464.88;;;13.76;55.34
51293;BME280;37377;45.186;9.778;2023-11-19T12:31:34;101458.72;;;13.86;53.20
51293;BME280;37377;45.186;9.778;2023-11-19T12:34:05;101451.31;;;13.92;53.13
51293;BME280;37377;45.186;9.778;2023-11-19T12:36:33;101451.63;;;13.98;53.24
51293;BME280;37377;45.186;9.778;2023-11-19T12:39:02;101430.56;;;13.98;52.63
51293;BME280;37377;45.186;9.778;2023-11-19T12:41:28;101428.84;;;14.08;52.70
51293;BME280;37377;45.186;9.778;2023-11-19T12:44:09;101428.84;;;14.08;53.20
51293;BME280;37377;45.186;9.778;2023-11-19T12:46:36;101429.09;;;14.05;54.35
51293;BME280;37377;45.186;9.778;2023-11-19T12:49:11;101420.38;;;14.05;54.35
51293;BME280;37377;45.186;9.778;2023-11-19T12:51:38;101417.84;;;14.03;54.62
51293;BME280;37377;45.186;9.778;2023-11-19T12:54:05;101402.84;;;14.04;54.48
51293;BME280;37377;45.186;9.778;2023-11-19T12:56:32;101409.94;;;14.03;55.50
51293;BME280;37377;45.186;9.778;2023-11-19T12:59:10;101410.41;;;14.08;55.11
51293;BME280;37377;45.186;9.778;2023-11-19T13:01:38;101399.03;;;14.08;55.04
51293;BME280;37377;45.186;9.778;2023-11-19T13:04:17;101394.97;;;14.04;54.11
51293;BME280;37377;45.186;9.778;2023-11-19T13:06:45;101403.69;;;14.04;54.06
51293;BME280;37377;45.186;9.778;2023-11-19T13:09:31;101398.75;;;14.11;53.49
51293;BME280;37377;45.186;9.778;2023-11-19T13:11:58;101390.03;;;14.10;53.75
51293;BME280;37377;45.186;9.778;2023-11-19T13:14:37;101385.72;;;14.09;54.89
51293;BME280;37377;45.186;9.778;2023-11-19T13:17:05;101384.81;;;13.99;55.54
51293;BME280;37377;45.186;9.778;2023-11-19T13:19:32;101390.03;;;14.10;55.52
51293;BME280;37377;45.186;9.778;2023-11-19T13:21:59;101401.38;;;14.11;55.23
51293;BME280;37377;45.186;9.778;2023-11-19T13:24:26;101388.75;;;14.05;54.56
51293;BME280;37377;45.186;9.778;2023-11-19T13:26:53;101384.19;;;14.07;55.26
51293;BME280;37377;45.186;9.778;2023-11-19T13:29:19;101382.38;;;14.07;55.50
51293;BME280;37377;45.186;9.778;2023-11-19T13:31:46;101376.16;;;14.08;55.51
51293;BME280;37377;45.186;9.778;2023-11-19T13:34:14;101377.63;;;14.01;55.40
51293;BME280;37377;45.186;9.778;2023-11-19T13:36:41;101383.59;;;14.03;55.49
51293;BME280;37377;45.186;9.778;2023-11-19T13:39:08;101371.66;;;13.99;56.07
51293;BME280;37377;45.186;9.778;2023-11-19T13:41:35;101369.84;;;14.00;55.92
51293;BME280;37377;45.186;9.778;2023-11-19T13:44:02;101361.88;;;14.11;55.29
51293;BME280;37377;45.186;9.778;2023-11-19T13:46:34;101371.34;;;14.13;55.54
51293;BME280;37377;45.186;9.778;2023-11-19T13:49:02;101377.44;;;14.14;55.21
51293;BME280;37377;45.186;9.778;2023-11-19T13:51:31;101376.84;;;14.10;54.87
51293;BME280;37377;45.186;9.778;2023-11-19T13:53:59;101370.34;;;13.94;54.90
51293;BME280;37377;45.186;9.778;2023-11-19T13:56:26;101372.09;;;14.04;53.98
51293;BME280;37377;45.186;9.778;2023-11-19T13:58:53;101368.75;;;14.02;54.20
51293;BME280;37377;45.186;9.778;2023-11-19T14:01:20;101361.75;;;13.92;54.55
51293;BME280;37377;45.186;9.778;2023-11-19T14:03:50;101365.91;;;13.94;54.51
51293;BME280;37377;45.186;9.778;2023-11-19T14:06:17;101357.06;;;13.95;55.09
51293;BME280;37377;45.186;9.778;2023-11-19T14:08:43;101349.75;;;13.99;55.50
51293;BME280;37377;45.186;9.778;2023-11-19T14:11:11;101355.84;;;13.99;55.53
51293;BME280;37377;45.186;9.778;2023-11-19T14:13:38;101366.19;;;13.91;55.10
51293;BME280;37377;45.186;9.778;2023-11-19T14:16:05;101366.38;;;13.99;54.59
51293;BME280;37377;45.186;9.778;2023-11-19T14:18:33;101352.06;;;13.92;55.39
51293;BME280;37377;45.186;9.778;2023-11-19T14:21:03;101350.94;;;13.95;55.51
51293;BME280;37377;45.186;9.778;2023-11-19T14:23:33;101355.38;;;13.94;55.34
51293;BME280;37377;45.186;9.778;2023-11-19T14:26:00;101357.31;;;13.92;55.29
51293;BME280;37377;45.186;9.778;2023-11-19T14:28:27;101353.16;;;13.89;55.13
51293;BME280;37377;45.186;9.778;2023-11-19T14:30:54;101356.16;;;13.85;55.59
51293;BME280;37377;45.186;9.778;2023-11-19T14:33:24;101351.53;;;13.77;55.71
51293;BME280;37377;45.186;9.778;2023-11-19T14:35:51;101358.16;;;13.72;56.04
51293;BME280;37377;45.186;9.778;2023-11-19T14:38:18;101358.78;;;13.64;56.51
51293;BME280;37377;45.186;9.778;2023-11-19T14:40:45;101364.38;;;13.71;55.90
51293;BME280;37377;45.186;9.778;2023-11-19T14:43:16;101360.50;;;13.75;56.03